Time;durP1;ratioP1;P1;durP2;ratioP2;P2;SDS_P1;SDS_P2;PMS_P1;PMS_P2;Temp;Humidity;BMP_temperature;BMP_pressure;BME280_temperature;BME280_humidity;BME280_pressure;Samples;Min_cycle;Max_cycle;Signal;HPM_P1;HPM_P2
2022/09/23 00:00:26;;;;;;;3.23;2.17;;;;;;;13.19;65.68;100570.84;5054872;28;20397;-77
2022/09/23 00:02:51;;;;;;;2.08;1.98;;;;;;;13.15;66.02;100567.00;5054553;28;20392;-77
2022/09/23 00:05:17;;;;;;;4.13;2.40;;;;;;;13.13;66.18;100569.16;5052078;28;20406;-77
2022/09/23 00:07:42;;;;;;;2.22;2.03;;;;;;;13.13;66.28;100570.00;5051266;28;20512;-77
2022/09/23 00:10:08;;;;;;;2.67;2.47;;;;;;;13.12;66.21;100573.78;5050888;28;20393;-77
2022/09/23 00:12:33;;;;;;;3.28;2.50;;;;;;;13.10;65.98;100567.78;5048075;28;20403;-77
2022/09/23 00:14:58;;;;;;;2.90;2.30;;;;;;;13.07;66.21;100571.00;5056075;28;20416;-77
2022/09/23 00:17:24;;;;;;;5.07;2.70;;;;;;;13.04;65.94;100573.41;5056617;28;20397;-77
2022/09/23 00:19:49;;;;;;;2.60;2.50;;;;;;;13.01;65.91;100570.09;5055555;28;20772;-77
2022/09/23 00:22:15;;;;;;;3.78;2.38;;;;;;;13.01;65.92;100580.16;5057022;28;20419;-77
2022/09/23 00:24:40;;;;;;;2.55;2.30;;;;;;;12.95;65.94;100576.59;5050111;28;20474;-77
2022/09/23 00:27:06;;;;;;;5.17;2.90;;;;;;;12.95;65.54;100575.75;5065668;28;20499;-77
2022/09/23 00:29:31;;;;;;;2.70;2.50;;;;;;;12.94;65.75;100571.41;5060480;28;20453;-77
2022/09/23 00:31:57;;;;;;;3.13;2.50;;;;;;;12.90;65.78;100582.00;5061765;28;20405;-76
2022/09/23 00:34:22;;;;;;;3.93;2.40;;;;;;;12.90;65.42;100578.44;5063722;28;20404;-77
2022/09/23 00:36:47;;;;;;;3.70;2.30;;;;;;;12.87;65.53;100578.97;5055376;28;20458;-76
2022/09/23 00:39:13;;;;;;;3.87;2.53;;;;;;;12.82;65.98;100571.56;5057439;28;20401;-77
2022/09/23 00:41:38;;;;;;;5.50;2.77;;;;;;;12.81;65.94;100572.63;5055423;28;20451;-76
2022/09/23 00:44:41;;;;;;;2.85;2.28;;;;;;;12.77;66.14;100574.25;5056679;28;20399;-77
2022/09/23 00:47:27;;;;;;;2.15;2.05;;;;;;;12.75;65.89;100570.94;5053643;28;20399;-77
2022/09/23 00:50:05;;;;;;;3.83;2.60;;;;;;;12.71;65.96;100567.09;5053797;28;20403;-77
2022/09/23 00:52:31;;;;;;;2.83;2.33;;;;;;;12.67;65.99;100568.69;5047568;28;20389;-77
2022/09/23 00:54:59;;;;;;;3.40;2.08;;;;;;;12.67;66.09;100574.13;5038502;28;20415;-76
2022/09/23 00:57:26;;;;;;;3.15;2.30;;;;;;;12.55;66.37;100567.16;5054070;28;20394;-77
2022/09/23 00:59:52;;;;;;;4.32;2.15;;;;;;;12.53;66.06;100564.72;5054736;28;20390;-77
2022/09/23 01:02:22;;;;;;;2.60;2.40;;;;;;;12.52;65.73;100570.41;5061680;28;20403;-77
2022/09/23 01:04:49;;;;;;;5.68;2.75;;;;;;;12.52;65.42;100564.97;5061894;28;20788;-76
2022/09/23 01:07:15;;;;;;;2.92;2.35;;;;;;;12.47;65.43;100565.75;5062143;28;20417;-77
2022/09/23 01:09:40;;;;;;;2.73;2.07;;;;;;;12.46;65.45;100561.38;5064756;28;20483;-77
2022/09/23 01:12:30;;;;;;;5.60;2.13;;;;;;;12.43;65.69;100565.44;5061405;28;20398;-76
2022/09/23 01:15:13;;;;;;;13.33;2.40;;;;;;;12.40;65.47;100559.69;5057914;28;20424;-76
2022/09/23 01:17:43;;;;;;;2.10;1.90;;;;;;;12.33;65.56;100553.63;5055343;28;20959;-76
2022/09/23 01:20:27;;;;;;;1.95;1.73;;;;;;;12.30;65.58;100557.69;5055773;28;20464;-77
2022/09/23 01:23:10;;;;;;;3.10;2.20;;;;;;;12.26;65.56;100552.97;5070334;28;20414;-76
2022/09/23 01:25:39;;;;;;;3.28;1.90;;;;;;;12.22;65.53;100555.38;5051963;28;20401;-77
2022/09/23 01:28:29;;;;;;;3.15;2.05;;;;;;;12.21;65.61;100547.50;5053145;28;20421;-77
2022/09/23 01:31:12;;;;;;;2.67;2.13;;;;;;;12.20;65.76;100559.44;5036078;28;20413;-76
2022/09/23 01:33:49;;;;;;;2.10;1.85;;;;;;;12.17;66.00;100555.34;5056182;28;20401;-76
2022/09/23 01:36:43;;;;;;;4.35;2.17;;;;;;;12.14;65.90;100553.13;5054097;28;20439;-77
2022/09/23 01:39:14;;;;;;;2.13;2.03;;;;;;;12.12;66.02;100557.19;5053577;28;20405;-77
2022/09/23 01:41:44;;;;;;;2.95;2.40;;;;;;;12.11;65.85;100550.09;5061148;28;20380;-76
2022/09/23 01:44:28;;;;;;;3.00;2.10;;;;;;;12.14;66.20;100549.59;5061882;28;20389;-77
2022/09/23 01:47:09;;;;;;;2.00;1.90;;;;;;;12.10;65.75;100551.16;5063186;28;20397;-77
2022/09/23 01:49:48;;;;;;;3.17;2.25;;;;;;;12.03;65.51;100545.09;5059314;28;20396;-77
2022/09/23 01:52:23;;;;;;;3.90;2.42;;;;;;;11.97;65.17;100552.34;5057979;28;20405;-77
2022/09/23 01:55:15;;;;;;;3.35;2.50;;;;;;;11.89;65.03;100550.88;5038989;28;20399;-76
2022/09/23 01:57:48;;;;;;;3.35;1.95;;;;;;;11.89;65.09;100558.22;5047962;28;20402;-77
2022/09/23 02:00:17;;;;;;;2.85;2.10;;;;;;;11.86;65.13;100553.28;5054783;28;20393;-77
2022/09/23 02:02:52;;;;;;;3.83;2.22;;;;;;;11.80;65.12;100548.88;5052710;28;20396;-77
2022/09/23 02:05:24;;;;;;;3.67;2.00;;;;;;;11.77;64.95;100543.94;5051056;28;20492;-77
2022/09/23 02:07:59;;;;;;;2.50;2.28;;;;;;;11.75;64.80;100551.53;5053335;28;20480;-77
2022/09/23 02:10:32;;;;;;;3.05;2.17;;;;;;;11.71;64.91;100543.06;5054311;28;20398;-77
2022/09/23 02:13:04;;;;;;;2.40;2.20;;;;;;;11.69;65.12;100539.72;5053435;28;20799;-77
2022/09/23 02:15:39;;;;;;;1.80;1.70;;;;;;;11.67;65.07;100541.88;5053876;28;20421;-77
2022/09/23 02:18:20;;;;;;;1.80;1.70;;;;;;;11.65;65.10;100549.44;5052595;28;20398;-77
2022/09/23 02:20:47;;;;;;;2.05;1.75;;;;;;;11.63;65.14;100548.03;5058267;28;20728;-77
2022/09/23 02:23:21;;;;;;;2.20;1.70;;;;;;;11.57;64.96;100532.75;5062594;28;20392;-77
2022/09/23 02:25:56;;;;;;;3.42;1.90;;;;;;;11.57;64.95;100549.03;5058170;28;20409;-77
2022/09/23 02:28:37;;;;;;;3.15;1.70;;;;;;;11.54;65.15;100549.53;5046766;28;20388;-77
2022/09/23 02:31:09;;;;;;;4.95;2.60;;;;;;;11.51;65.22;100544.59;5056897;28;20408;-77
2022/09/23 02:33:52;;;;;;;1.88;1.77;;;;;;;11.48;64.99;100537.78;5056265;28;20405;-76
2022/09/23 02:36:57;;;;;;;3.57;2.00;;;;;;;11.45;64.82;100541.84;5050377;28;20437;-77
2022/09/23 02:39:29;;;;;;;3.20;1.80;;;;;;;11.45;64.80;100535.59;5034038;28;20493;-77
2022/09/23 02:42:03;;;;;;;3.63;1.88;;;;;;;11.42;64.74;100533.38;5053700;28;20914;-77
2022/09/23 02:44:31;;;;;;;4.35;2.30;;;;;;;11.36;64.77;100532.44;5051598;28;20390;-77
2022/09/23 02:46:56;;;;;;;1.90;1.63;;;;;;;11.30;64.92;100532.63;5049253;28;20393;-76
2022/09/23 02:49:28;;;;;;;1.80;1.70;;;;;;;11.26;65.12;100531.50;5051606;28;20841;-77
2022/09/23 02:51:54;;;;;;;4.60;2.20;;;;;;;11.15;65.10;100522.38;5057099;28;20793;-77
2022/09/23 02:54:23;;;;;;;3.33;2.13;;;;;;;11.11;65.23;100521.22;5052923;28;20385;-76
2022/09/23 02:56:48;;;;;;;1.80;1.70;;;;;;;11.07;65.32;100511.09;5051872;28;20505;-77
2022/09/23 02:59:18;;;;;;;2.03;1.83;;;;;;;11.03;65.08;100507.25;5051523;28;20468;-77
2022/09/23 03:02:04;;;;;;;2.00;1.90;;;;;;;11.01;65.47;100512.06;5064122;28;20427;-77
2022/09/23 03:04:46;;;;;;;3.30;2.33;;;;;;;11.01;65.67;100510.19;5057947;28;20391;-77
2022/09/23 03:07:17;;;;;;;2.25;1.85;;;;;;;11.01;65.74;100510.19;5040437;28;20492;-77
2022/09/23 03:10:08;;;;;;;3.97;2.08;;;;;;;11.02;66.04;100505.59;5048999;28;20434;-77
2022/09/23 03:12:59;;;;;;;4.75;2.15;;;;;;;11.05;66.06;100508.63;5052818;28;20413;-76
2022/09/23 03:15:36;;;;;;;3.35;2.03;;;;;;;11.08;66.50;100516.28;5039949;28;20427;-76
2022/09/23 03:18:24;;;;;;;2.55;1.65;;;;;;;11.05;66.37;100514.06;5051838;28;20385;-77
2022/09/23 03:21:00;;;;;;;3.90;2.10;;;;;;;11.03;66.56;100513.47;5051792;28;20454;-76
2022/09/23 03:23:34;;;;;;;2.50;2.20;;;;;;;10.99;66.67;100514.22;5050377;28;20393;-76
2022/09/23 03:26:04;;;;;;;2.07;1.97;;;;;;;10.98;66.79;100518.81;5051087;28;20389;-77
2022/09/23 03:28:30;;;;;;;2.20;2.10;;;;;;;10.98;66.57;100516.09;5051654;28;20389;-77
2022/09/23 03:30:59;;;;;;;3.03;1.92;;;;;;;10.97;66.51;100511.75;5064556;28;20416;-77
2022/09/23 03:33:28;;;;;;;3.53;2.10;;;;;;;10.95;66.73;100508.47;5054043;28;20460;-76
2022/09/23 03:38:51;;;;;;;2.47;2.28;;;;;;;10.90;66.69;100513.78;5049137;28;20729;-76
2022/09/23 03:41:28;;;;;;;2.65;1.95;;;;;;;10.89;66.67;100510.28;5064241;28;20399;-77
2022/09/23 03:43:57;;;;;;;2.97;2.10;;;;;;;10.87;67.03;100514.28;5060673;28;20396;-76
2022/09/23 03:46:26;;;;;;;2.20;2.10;;;;;;;10.78;67.38;100505.75;5056458;28;20799;-76
2022/09/23 03:48:51;;;;;;;2.17;2.05;;;;;;;10.77;67.25;100503.25;5063606;28;20394;-77
2022/09/23 03:51:21;;;;;;;3.88;2.65;;;;;;;10.79;67.28;100506.56;5062277;28;20395;-77
2022/09/23 03:53:47;;;;;;;2.35;2.20;;;;;;;10.79;67.01;100510.09;5053537;28;20399;-78
2022/09/23 03:56:13;;;;;;;4.95;2.30;;;;;;;10.80;66.96;100503.59;5050400;28;20424;-76
2022/09/23 03:58:38;;;;;;;4.85;2.25;;;;;;;10.82;66.92;100501.47;5057490;28;20423;-76
2022/09/23 04:01:03;;;;;;;5.33;2.10;;;;;;;10.86;66.97;100504.53;5055798;28;20393;-75
2022/09/23 04:03:29;;;;;;;3.17;2.13;;;;;;;10.83;66.55;100500.41;5049979;28;20458;-76
2022/09/23 04:05:54;;;;;;;3.00;1.77;;;;;;;10.79;66.58;100504.69;5054754;28;20425;-76
2022/09/23 04:08:19;;;;;;;3.20;2.10;;;;;;;10.74;66.44;100503.75;5055962;28;20868;-75
2022/09/23 04:10:45;;;;;;;4.07;2.30;;;;;;;10.72;66.40;100505.91;5056175;28;20749;-76
2022/09/23 04:13:11;;;;;;;1.65;1.65;;;;;;;10.70;66.51;100508.03;5056320;28;20389;-75
2022/09/23 04:15:36;;;;;;;3.67;2.13;;;;;;;10.67;66.31;100501.19;5054345;28;20420;-75
2022/09/23 04:18:01;;;;;;;2.47;2.10;;;;;;;10.62;66.05;100501.13;5054639;28;20402;-76
2022/09/23 04:20:28;;;;;;;4.20;2.23;;;;;;;10.50;65.83;100494.97;5067535;28;20443;-76
2022/09/23 04:22:53;;;;;;;2.10;1.90;;;;;;;10.48;66.28;100507.06;5066816;28;20504;-75
2022/09/23 04:25:18;;;;;;;2.67;2.20;;;;;;;10.42;66.04;100498.03;5061158;28;20561;-74
2022/09/23 04:27:43;;;;;;;2.90;2.17;;;;;;;10.44;65.98;100501.31;5051143;28;20769;-75
2022/09/23 04:30:09;;;;;;;7.90;2.00;;;;;;;10.39;65.91;100507.50;5062836;28;20399;-75
2022/09/23 04:32:34;;;;;;;4.20;2.67;;;;;;;10.32;66.23;100505.97;5058961;28;20400;-75
2022/09/23 04:35:00;;;;;;;3.70;2.13;;;;;;;10.31;66.28;100505.16;5055187;28;20475;-75
2022/09/23 04:37:25;;;;;;;3.47;2.20;;;;;;;10.34;66.29;100510.09;5046768;28;20406;-75
2022/09/23 04:39:50;;;;;;;10.48;2.63;;;;;;;10.37;65.97;100506.09;5035032;28;20405;-76
2022/09/23 04:42:16;;;;;;;3.87;2.23;;;;;;;10.39;65.91;100507.50;5050686;28;20918;-76
2022/09/23 04:44:41;;;;;;;6.47;3.03;;;;;;;10.37;66.01;100509.59;5041213;28;20398;-83
2022/09/23 04:47:06;;;;;;;7.93;5.47;;;;;;;10.41;66.36;100512.66;5048648;28;20740;-77
2022/09/23 04:49:32;;;;;;;4.03;3.20;;;;;;;10.40;66.39;100513.72;5045865;28;20417;-77
2022/09/23 04:51:58;;;;;;;5.22;3.10;;;;;;;10.39;66.33;100510.19;5043088;28;20523;-77
2022/09/23 04:54:23;;;;;;;9.47;4.23;;;;;;;10.36;66.46;100512.56;5047885;28;20431;-76
2022/09/23 04:56:48;;;;;;;42.85;16.70;;;;;;;10.37;66.89;100515.00;5043528;28;20510;-77
2022/09/23 04:59:13;;;;;;;22.43;8.97;;;;;;;10.43;66.88;100507.00;5053776;28;20404;-76
2022/09/23 05:01:39;;;;;;;41.43;17.20;;;;;;;10.49;67.12;100508.72;5057422;28;20415;-76
2022/09/23 05:04:07;;;;;;;47.33;17.30;;;;;;;10.52;67.52;100510.94;5054051;28;20432;-77
2022/09/23 05:06:33;;;;;;;22.33;9.35;;;;;;;10.50;67.33;100515.81;5051257;28;20491;-77
2022/09/23 05:08:59;;;;;;;7.10;4.82;;;;;;;10.48;67.81;100512.50;5048057;28;20756;-76
2022/09/23 05:11:27;;;;;;;4.70;3.47;;;;;;;10.52;67.82;100509.06;5055571;28;20418;-76
2022/09/23 05:13:53;;;;;;;4.55;2.45;;;;;;;10.56;67.34;100504.00;5046356;28;20764;-76
2022/09/23 05:16:21;;;;;;;2.60;2.40;;;;;;;10.53;67.31;100513.44;5057483;28;20413;-78
2022/09/23 05:18:48;;;;;;;6.63;3.95;;;;;;;10.52;67.39;100519.91;5047666;28;20399;-76
2022/09/23 05:21:15;;;;;;;7.10;4.88;;;;;;;10.51;67.23;100512.00;5047281;28;20397;-76
2022/09/23 05:23:41;;;;;;;5.47;3.65;;;;;;;10.51;67.15;100520.13;5049577;28;20402;-77
2022/09/23 05:26:09;;;;;;;6.20;4.72;;;;;;;10.50;67.44;100522.06;5041873;28;20417;-76
2022/09/23 05:28:36;;;;;;;4.07;3.65;;;;;;;10.53;67.01;100523.44;5033634;28;20409;-76
2022/09/23 05:31:15;;;;;;;8.68;4.30;;;;;;;10.52;66.97;100519.91;5053837;28;20420;-76
2022/09/23 05:33:42;;;;;;;5.10;3.95;;;;;;;10.53;67.07;100523.44;5047717;28;20405;-76
2022/09/23 05:36:08;;;;;;;4.07;3.67;;;;;;;10.52;67.14;100527.22;5045590;28;20425;-76
2022/09/23 05:38:33;;;;;;;3.93;3.60;;;;;;;10.49;67.93;100522.28;5049362;28;20823;-76
2022/09/23 05:41:05;;;;;;;4.37;3.70;;;;;;;10.50;68.25;100526.66;5051309;28;20417;-76
2022/09/23 05:43:31;;;;;;;4.43;3.60;;;;;;;10.54;68.40;100531.31;5055984;28;20438;-76
2022/09/23 05:46:05;;;;;;;6.03;3.67;;;;;;;10.59;68.51;100531.44;5055008;28;20397;-77
2022/09/23 05:48:31;;;;;;;3.67;3.47;;;;;;;10.62;68.95;100533.66;5052201;28;20519;-77
2022/09/23 05:50:57;;;;;;;4.03;3.72;;;;;;;10.64;69.05;100533.38;5059421;28;20460;-76
2022/09/23 05:53:22;;;;;;;5.60;3.90;;;;;;;10.63;69.18;100534.47;5053537;28;20418;-76
2022/09/23 05:55:48;;;;;;;5.30;4.80;;;;;;;10.56;69.59;100536.50;5050927;28;20463;-76
2022/09/23 05:58:13;;;;;;;6.13;4.90;;;;;;;10.52;70.04;100532.63;5050869;28;20409;-76
2022/09/23 06:00:40;;;;;;;18.83;8.23;;;;;;;10.53;70.22;100535.13;5052959;28;20548;-76
2022/09/23 06:03:11;;;;;;;20.48;6.72;;;;;;;10.64;69.97;100534.22;5051044;28;20436;-76
2022/09/23 06:05:37;;;;;;;7.97;3.87;;;;;;;10.68;69.32;100532.66;5052851;28;20420;-76
2022/09/23 06:08:02;;;;;;;5.73;3.73;;;;;;;10.62;70.39;100538.25;5045710;28;20401;-76
2022/09/23 06:10:27;;;;;;;5.03;4.30;;;;;;;10.65;70.15;100535.03;5050551;28;20400;-76
2022/09/23 06:12:52;;;;;;;4.63;4.10;;;;;;;10.76;70.09;100529.56;5052614;28;20409;-76
2022/09/23 06:15:18;;;;;;;5.07;3.90;;;;;;;10.90;69.82;100530.06;5054180;28;20421;-76
2022/09/23 06:17:43;;;;;;;4.17;3.37;;;;;;;11.08;69.64;100529.00;5043781;28;20776;-76
2022/09/23 06:20:09;;;;;;;6.17;3.30;;;;;;;11.22;69.24;100527.63;5047191;28;20405;-76
2022/09/23 06:22:34;;;;;;;6.45;3.40;;;;;;;11.28;69.13;100522.03;5062087;28;20411;-76
2022/09/23 06:24:59;;;;;;;4.83;3.10;;;;;;;11.40;69.03;100525.47;5056498;28;20412;-76
2022/09/23 06:27:24;;;;;;;6.03;2.93;;;;;;;11.45;68.95;100528.25;5049956;28;20803;-76
2022/09/23 06:29:51;;;;;;;4.03;2.80;;;;;;;11.43;69.02;100527.66;5052864;28;20417;-77
2022/09/23 06:32:16;;;;;;;3.23;3.03;;;;;;;11.49;69.05;100528.59;5054846;28;20427;-76
2022/09/23 06:34:44;;;;;;;5.73;3.40;;;;;;;11.53;68.51;100518.03;5052208;28;20409;-76
2022/09/23 06:37:10;;;;;;;4.90;3.15;;;;;;;11.37;69.01;100525.97;5048976;28;21030;-76
2022/09/23 06:39:35;;;;;;;4.93;3.17;;;;;;;11.40;69.27;100514.59;5050929;28;20500;-76
2022/09/23 06:42:00;;;;;;;5.83;3.20;;;;;;;11.49;69.12;100522.34;5054556;28;20411;-76
2022/09/23 06:44:27;;;;;;;6.10;4.20;;;;;;;11.48;69.05;100517.97;5053910;28;20398;-76
2022/09/23 06:46:52;;;;;;;5.68;3.90;;;;;;;11.42;68.89;100517.09;5053754;28;20551;-76
2022/09/23 06:49:20;;;;;;;6.30;3.10;;;;;;;11.41;69.48;100523.56;5051136;28;20858;-76
2022/09/23 06:51:45;;;;;;;6.10;3.50;;;;;;;11.42;69.00;100525.22;5070175;28;20894;-76
2022/09/23 06:54:10;;;;;;;6.67;3.17;;;;;;;11.50;68.50;100523.97;5059583;28;20415;-76
2022/09/23 06:56:36;;;;;;;5.17;3.03;;;;;;;11.50;67.97;100527.50;5057334;28;20429;-76
2022/09/23 06:59:01;;;;;;;3.40;2.90;;;;;;;11.46;68.29;100526.34;5057642;28;20439;-76
2022/09/23 07:01:26;;;;;;;3.77;3.10;;;;;;;11.53;68.22;100529.72;5058147;28;20408;-76
2022/09/23 07:03:53;;;;;;;5.83;2.90;;;;;;;11.64;68.00;100533.41;5056877;28;20412;-76
2022/09/23 07:06:18;;;;;;;4.70;2.80;;;;;;;11.65;68.03;100529.63;5049935;28;20411;-76
2022/09/23 07:08:45;;;;;;;6.55;2.95;;;;;;;11.66;67.96;100531.25;5054111;28;20432;-76
2022/09/23 07:11:12;;;;;;;3.75;2.72;;;;;;;11.72;67.83;100535.72;5036104;28;20484;-76
2022/09/23 07:13:38;;;;;;;3.20;2.87;;;;;;;11.73;67.66;100543.63;5025813;28;20547;-76
2022/09/23 07:16:04;;;;;;;3.00;2.70;;;;;;;11.77;67.19;100539.34;5050630;28;20428;-76
2022/09/23 07:18:32;;;;;;;4.83;3.40;;;;;;;11.82;67.11;100542.09;5045663;28;20413;-76
2022/09/23 07:21:07;;;;;;;4.82;3.03;;;;;;;11.79;67.23;100539.88;5051827;28;20903;-76
2022/09/23 07:23:33;;;;;;;5.18;2.70;;;;;;;11.56;67.86;100542.78;5044130;28;20488;-76
2022/09/23 07:25:59;;;;;;;4.00;2.75;;;;;;;11.45;68.53;100539.13;5053108;28;20488;-76
2022/09/23 07:28:26;;;;;;;4.57;2.87;;;;;;;11.50;68.70;100537.53;5050927;28;20409;-76
2022/09/23 07:30:52;;;;;;;4.50;2.95;;;;;;;11.63;68.24;100539.88;5052472;28;20419;-76
2022/09/23 07:33:17;;;;;;;4.43;3.15;;;;;;;11.69;68.21;100538.91;5058065;28;20408;-76
2022/09/23 07:35:42;;;;;;;8.33;4.10;;;;;;;11.71;68.50;100544.94;5055877;28;20483;-76
2022/09/23 07:38:09;;;;;;;5.72;3.45;;;;;;;11.81;68.22;100548.63;5057300;28;20459;-76
2022/09/23 07:40:35;;;;;;;3.25;3.00;;;;;;;11.93;68.13;100552.03;5057448;28;20481;-76
2022/09/23 07:43:00;;;;;;;5.20;3.90;;;;;;;11.98;68.41;100555.91;5057348;28;20836;-76
2022/09/23 07:45:26;;;;;;;4.25;3.28;;;;;;;12.01;68.55;100555.41;5054984;28;20443;-76
2022/09/23 07:47:52;;;;;;;3.83;3.53;;;;;;;12.07;68.31;100557.09;5053313;28;20440;-77
2022/09/23 07:50:17;;;;;;;6.53;3.03;;;;;;;12.11;68.74;100564.50;5050809;28;20475;-76
2022/09/23 07:52:43;;;;;;;5.40;3.93;;;;;;;12.13;68.56;100559.63;5049285;28;20399;-76
2022/09/23 07:55:09;;;;;;;5.47;3.85;;;;;;;12.19;68.56;100558.63;5050708;28;20400;-76
2022/09/23 07:57:34;;;;;;;7.37;4.33;;;;;;;12.22;68.65;100558.09;5050715;28;20413;-76
2022/09/23 08:00:00;;;;;;;5.43;3.37;;;;;;;12.19;68.89;100557.78;5048008;28;20517;-76
2022/09/23 08:02:25;;;;;;;4.43;3.30;;;;;;;12.12;69.62;100568.03;5051498;28;20413;-76
2022/09/23 08:04:52;;;;;;;4.38;3.97;;;;;;;12.15;69.43;100568.34;5030974;28;20756;-76
2022/09/23 08:07:17;;;;;;;6.33;3.73;;;;;;;12.15;69.95;100562.91;5048196;28;20946;-76
2022/09/23 08:09:43;;;;;;;5.07;3.50;;;;;;;12.20;70.15;100565.69;5039918;28;20421;-76
2022/09/23 08:12:10;;;;;;;6.50;3.97;;;;;;;12.34;69.77;100566.97;5059601;28;20404;-76
2022/09/23 08:14:36;;;;;;;4.82;4.15;;;;;;;12.36;69.76;100561.25;5043254;28;20448;-76
2022/09/23 08:17:02;;;;;;;6.40;4.78;;;;;;;12.35;69.88;100570.47;5046982;28;20428;-76
2022/09/23 08:19:27;;;;;;;6.47;4.40;;;;;;;12.41;69.75;100564.84;5056417;28;20772;-76
2022/09/23 08:21:53;;;;;;;6.85;4.43;;;;;;;12.54;69.23;100569.09;5070245;28;20433;-76
2022/09/23 08:24:20;;;;;;;5.10;4.60;;;;;;;12.61;69.40;100568.91;5033841;28;20498;-76
2022/09/23 08:26:46;;;;;;;6.18;4.65;;;;;;;12.68;69.19;100575.75;5049698;28;20466;-74
2022/09/23 08:29:14;;;;;;;6.30;4.72;;;;;;;12.73;69.37;100570.38;5051956;28;20405;-74
2022/09/23 08:31:39;;;;;;;5.97;4.93;;;;;;;12.78;69.14;100575.03;5051081;28;20405;-76
2022/09/23 08:34:05;;;;;;;6.30;4.40;;;;;;;12.82;68.87;100562.56;5051197;28;20447;-76
2022/09/23 08:36:31;;;;;;;5.13;4.63;;;;;;;12.89;68.87;100568.63;5053294;28;20544;-76
2022/09/23 08:38:56;;;;;;;4.85;4.38;;;;;;;12.96;68.52;100570.06;5053505;28;20417;-80
2022/09/23 08:41:37;;;;;;;6.10;4.75;;;;;;;13.00;68.09;100565.78;5036751;28;20405;-77
2022/09/23 08:44:17;;;;;;;7.15;4.22;;;;;;;13.07;67.98;100562.00;5052024;28;20933;-76
2022/09/23 08:46:51;;;;;;;4.43;3.85;;;;;;;13.12;67.62;100559.34;5053424;28;20413;-76
2022/09/23 08:49:24;;;;;;;6.90;4.25;;;;;;;13.20;67.40;100562.44;5062596;28;20405;-76
2022/09/23 08:51:53;;;;;;;5.28;4.03;;;;;;;13.25;67.38;100565.19;5051895;28;20404;-76
2022/09/23 08:54:19;;;;;;;5.72;4.15;;;;;;;13.27;67.03;100554.06;5060776;28;20426;-76
2022/09/23 08:56:50;;;;;;;5.25;4.20;;;;;;;13.35;66.74;100551.66;5058101;28;20892;-76
2022/09/23 08:59:27;;;;;;;4.50;4.10;;;;;;;13.41;66.85;100547.06;5057115;28;20571;-76
2022/09/23 09:01:59;;;;;;;4.45;3.83;;;;;;;13.46;66.57;100552.56;5050297;28;20432;-76
2022/09/23 09:04:39;;;;;;;7.10;4.05;;;;;;;13.55;66.66;100564.59;5036192;28;20466;-76
2022/09/23 09:07:08;;;;;;;5.72;4.30;;;;;;;13.64;66.73;100551.31;5043113;28;20411;-76
2022/09/23 09:09:44;;;;;;;5.50;4.55;;;;;;;13.74;66.21;100551.38;5052818;28;20413;-76
2022/09/23 09:12:15;;;;;;;6.07;4.32;;;;;;;13.85;66.41;100545.72;5052461;28;20409;-76
2022/09/23 09:14:51;;;;;;;4.75;4.40;;;;;;;13.96;66.00;100549.34;5047028;28;20451;-76
2022/09/23 09:17:52;;;;;;;6.35;4.80;;;;;;;14.01;66.02;100542.00;5051536;28;20427;-76
2022/09/23 09:20:27;;;;;;;5.22;4.07;;;;;;;14.09;65.82;100543.41;5051628;28;20500;-76
2022/09/23 09:22:59;;;;;;;6.53;4.15;;;;;;;14.19;65.58;100543.44;5044961;28;20447;-75
2022/09/23 09:25:41;;;;;;;6.00;4.38;;;;;;;14.26;65.56;100538.53;5049077;28;20512;-76
2022/09/23 09:28:20;;;;;;;7.53;4.00;;;;;;;14.40;64.94;100538.91;5062467;28;20403;-75
2022/09/23 09:30:49;;;;;;;4.32;3.67;;;;;;;14.53;64.45;100531.03;5074687;28;20899;-76
2022/09/23 09:33:17;;;;;;;7.93;4.78;;;;;;;14.77;63.95;100527.81;5052065;28;20415;-76
2022/09/23 09:36:07;;;;;;;4.32;4.03;;;;;;;15.08;63.74;100526.75;5059328;28;20435;-76
2022/09/23 09:38:33;;;;;;;6.35;3.70;;;;;;;15.40;62.55;100529.19;5054770;28;20795;-75
2022/09/23 09:41:08;;;;;;;6.40;3.70;;;;;;;15.62;62.07;100527.00;5057766;28;20411;-76
2022/09/23 09:43:33;;;;;;;6.32;3.33;;;;;;;16.02;60.64;100515.94;5053626;28;20467;-76
2022/09/23 09:46:05;;;;;;;3.85;3.47;;;;;;;17.04;58.20;100522.50;5031720;28;20409;-76
2022/09/23 09:48:37;;;;;;;4.03;3.70;;;;;;;18.40;54.00;100514.75;5046140;28;20411;-76
2022/09/23 09:51:20;;;;;;;4.15;3.55;;;;;;;19.66;50.42;100518.25;5049431;28;20921;-76
2022/09/23 09:53:47;;;;;;;6.13;3.63;;;;;;;20.70;47.62;100506.47;5050914;28;20421;-76
2022/09/23 09:56:15;;;;;;;4.78;3.40;;;;;;;21.78;44.71;100503.47;5034303;28;20784;-76
2022/09/23 09:58:48;;;;;;;4.50;3.60;;;;;;;22.49;42.47;100505.03;5051681;28;20885;-76
2022/09/23 10:01:31;;;;;;;5.20;3.70;;;;;;;23.13;41.07;100506.81;5050849;28;20424;-76
2022/09/23 10:03:59;;;;;;;3.33;3.00;;;;;;;23.57;40.46;100505.63;5052285;28;20492;-76
2022/09/23 10:06:28;;;;;;;3.70;3.30;;;;;;;23.71;40.31;100500.69;5048697;28;20510;-76
2022/09/23 10:09:10;;;;;;;5.10;2.97;;;;;;;24.18;39.78;100501.47;5062964;28;20410;-76
2022/09/23 10:11:36;;;;;;;2.57;2.37;;;;;;;24.35;39.17;100496.97;5052106;28;20500;-76
2022/09/23 10:14:08;;;;;;;6.05;2.72;;;;;;;24.50;39.22;100499.97;5055633;28;20415;-76
2022/09/23 10:16:34;;;;;;;2.92;2.60;;;;;;;24.90;38.22;100493.97;5040244;28;20425;-76
2022/09/23 10:19:02;;;;;;;3.78;2.53;;;;;;;25.25;37.36;100498.06;5038392;28;20388;-76
2022/09/23 10:21:35;;;;;;;3.10;2.25;;;;;;;25.41;36.96;100492.66;5064967;28;20401;-76
2022/09/23 10:24:04;;;;;;;2.63;2.50;;;;;;;25.74;36.32;100493.44;5053997;28;20911;-76
2022/09/23 10:26:35;;;;;;;4.93;2.63;;;;;;;26.19;35.30;100491.41;5043417;28;20764;-77
2022/09/23 10:29:20;;;;;;;2.88;2.67;;;;;;;26.80;34.37;100485.72;5052850;28;20409;-76
2022/09/23 10:31:45;;;;;;;3.22;2.90;;;;;;;27.30;33.43;100477.63;5051557;28;20397;-76
2022/09/23 10:34:26;;;;;;;3.73;2.30;;;;;;;27.23;33.65;100476.66;5037492;28;20465;-77
2022/09/23 10:37:01;;;;;;;2.00;1.90;;;;;;;27.32;33.42;100464.19;5056326;28;20416;-76
2022/09/23 10:48:35;;;;;;;4.93;2.53;;;;;;;26.57;34.68;100446.53;5051597;28;20430;-77
2022/09/23 10:51:06;;;;;;;3.05;2.15;;;;;;;27.24;33.02;100450.41;5044572;28;20417;-77
2022/09/23 10:53:58;;;;;;;4.10;2.05;;;;;;;27.72;32.63;100450.16;5045483;28;20383;-76
2022/09/23 10:56:33;;;;;;;2.33;1.80;;;;;;;27.71;32.42;100447.72;5047201;28;20520;-76
2022/09/23 10:59:29;;;;;;;6.33;2.40;;;;;;;27.82;31.65;100449.59;5047720;28;20402;-76
2022/09/23 11:02:09;;;;;;;2.00;1.80;;;;;;;28.58;30.72;100448.19;5043200;28;20417;-76
2022/09/23 11:04:54;;;;;;;2.35;1.75;;;;;;;28.93;30.25;100456.50;5054563;28;20880;-76
2022/09/23 11:07:24;;;;;;;2.75;1.90;;;;;;;28.94;30.18;100452.53;5048069;28;20832;-76
2022/09/23 11:10:03;;;;;;;1.70;1.60;;;;;;;29.05;29.53;100444.34;5051618;28;20392;-76
2022/09/23 11:12:36;;;;;;;4.65;1.70;;;;;;;28.75;30.09;100453.34;5047092;28;20431;-76
2022/09/23 11:15:32;;;;;;;1.73;1.60;;;;;;;28.11;31.16;100453.09;5058714;28;20419;-76
2022/09/23 11:18:21;;;;;;;1.95;1.67;;;;;;;27.82;31.39;100448.78;5046583;28;21325;-76
2022/09/23 11:21:05;;;;;;;4.30;1.97;;;;;;;27.78;31.09;100440.34;5056952;28;20408;-76
2022/09/23 11:23:45;;;;;;;7.38;1.85;;;;;;;28.14;30.36;100441.22;5047416;28;20488;-76
2022/09/23 11:26:26;;;;;;;2.08;1.95;;;;;;;27.86;31.07;100432.16;5055270;28;20424;-76
2022/09/23 11:29:18;;;;;;;4.40;2.03;;;;;;;27.22;32.79;100424.94;5037309;28;20847;-76
2022/09/23 11:32:20;;;;;;;3.63;1.80;;;;;;;26.75;33.34;100422.00;5048227;28;20409;-76
2022/09/23 11:35:14;;;;;;;2.15;1.30;;;;;;;26.05;34.35;100421.47;5042600;28;20451;-76
2022/09/23 11:37:44;;;;;;;2.60;1.50;;;;;;;26.25;34.05;100416.97;5044006;28;20418;-76
2022/09/23 11:40:27;;;;;;;1.50;1.40;;;;;;;27.21;32.55;100420.53;5050080;28;21150;-76
2022/09/23 11:43:03;;;;;;;1.83;1.10;;;;;;;27.80;31.55;100414.91;5048186;28;20483;-76
2022/09/23 11:45:35;;;;;;;3.00;1.50;;;;;;;27.34;32.12;100410.94;5052839;28;20471;-76
2022/09/23 11:48:21;;;;;;;4.85;1.95;;;;;;;27.23;31.99;100413.44;5050500;28;20406;-76
2022/09/23 11:50:57;;;;;;;2.53;1.50;;;;;;;27.12;32.44;100401.25;5051467;28;20414;-76
2022/09/23 11:53:31;;;;;;;1.80;1.35;;;;;;;27.66;31.60;100395.88;5055922;28;20467;-76